Terminal Aerodrome Forecast
Issued by NWS Grand Forks, ND

Home | Current Version | Previous Version | Text Only | Print | Product List | Glossary Off
Versions: 1 2 3 4 5 6 7 8 9 10 11 12 13 14 15 16 17 18 19 20 21

000
FTUS43 KFGF 240300 AAA
TAFFAR
TAF AMD
KFAR 240317Z 2403/2424 34014KT P6SM OVC009
      TEMPO 2403/2406 4SM -SN
     FM241200 VRB06KT P6SM OVC006
     FM241800 21007KT P6SM OVC016=

USA.gov is the U.S. government's official web portal to all federal, state and local government web resources and services.